Aviation Digital Data Service (ADDS)

Output produced by METARs form (2104 UTC 17 November 2018)
found at http://www.aviationweather.gov/metar/data/
 
METAR text: EPSC 172100Z 07001KT CAVOK M02/M03 Q1038
Conditions at: EPSC (SZCZECIN/GOLENIO, PL) observed 2100 UTC 17 November 2018
Temperature: -2.0°C (28°F)
Dewpoint: -3.0°C (27°F) [RH = 93%]
Pressure (altimeter): 30.65 inches Hg (1038.0 mb)
Winds: from the ENE (70 degrees) at 1 MPH (1 knots; 0.5 m/s)
Visibility: 6 or more miles (10+ km)
Ceiling: ceiling and visibility are OK
Clouds: unknown
Weather: no significant weather observed at this time

METAR text: EPSC 172030Z 03001KT CAVOK M02/M03 Q1038
Conditions at: EPSC (SZCZECIN/GOLENIO, PL) observed 2030 UTC 17 November 2018
Temperature: -2.0°C (28°F)
Dewpoint: -3.0°C (27°F) [RH = 93%]
Pressure (altimeter): 30.65 inches Hg (1038.0 mb)
Winds: from the NNE (30 degrees) at 1 MPH (1 knots; 0.5 m/s)
Visibility: 6 or more miles (10+ km)
Ceiling: ceiling and visibility are OK
Clouds: unknown
Weather: no significant weather observed at this time

Forecast for: EPSC (SZCZECIN/GOLENIO, PL)
Text: TAF EPSC 171730Z 1718/1818 VRB02KT CAVOK
Forecast period: 1800 UTC 17 November 2018 to 1800 UTC 18 November 2018
Forecast type: FROM: standard forecast or significant change
Winds: variable direction winds at 2 MPH (2 knots; 1.0 m/s)
Visibility: 6 or more miles 10+ km)
Ceiling: unknown
Clouds: missing
Weather: NSW  (no significant weather)
Text: BECMG 1718/1720 3000 BR
Forecast period: 1800 UTC 17 November 2018 to 0800 UTC 18 November 2018
Forecast type: BECOMING: Conditions expected to become as follows by 2000 UTC 17 November 2018
Winds: variable direction winds at 2 MPH (2 knots; 1.0 m/s)
Visibility: 1.86 miles (2.99 km)
Ceiling: unknown
Clouds: missing
Weather: BR  (mist)
Text: TEMPO 1721/1808 0300 FZFG OVC001
Forecast period: 2100 UTC 17 November 2018 to 0800 UTC 18 November 2018
Forecast type: TEMPORARY: The following changes expected for less than half the time period
Visibility: 0.19 miles (0.31 km)
Ceiling: 100 feet AGL
Clouds: overcast cloud deck at 100 feet AGL
Weather: FZFG  (freezing fog)
Text: BECMG 1808/1810 BKN006
Forecast period: 0800 to 1800 UTC 18 November 2018
Forecast type: BECOMING: Conditions expected to become as follows by 1000 UTC 18 November 2018
Winds: variable direction winds at 2 MPH (2 knots; 1.0 m/s)
Visibility: 1.86 miles (2.99 km)
Ceiling: 600 feet AGL
Clouds: broken clouds at 600 feet AGL
Weather: BR  (mist)
Text: TEMPO 1811/1818 1400 RADZ BR OVC003
Forecast period: 1100 to 1800 UTC 18 November 2018
Forecast type: TEMPORARY: The following changes expected for less than half the time period
Visibility: 0.87 miles (1.40 km)
Ceiling: 300 feet AGL
Clouds: overcast cloud deck at 300 feet AGL
Weather: RA DZ BR  (moderate rain, moderate drizzle, mist)